Time;durP1;ratioP1;P1;durP2;ratioP2;P2;SDS_P1;SDS_P2;PMS_P1;PMS_P2;Temp;Humidity;BMP_temperature;BMP_pressure;BME280_temperature;BME280_humidity;BME280_pressure;Samples;Min_cycle;Max_cycle;Signal;HPM_P1;HPM_P2
2022/09/28 00:01:51;;;;;;;0.00;0.00;;;5.00;99.90;;;;;;5076374;28;20047;-76
2022/09/28 00:04:16;;;;;;;0.00;0.00;;;5.00;99.90;;;;;;5075661;28;20482;-75
2022/09/28 00:06:43;;;;;;;0.32;0.32;;;4.90;99.90;;;;;;5075263;28;20065;-76
2022/09/28 00:09:09;;;;;;;0.15;0.15;;;4.80;99.90;;;;;;5070514;28;20040;-76
2022/09/28 00:11:35;;;;;;;0.00;0.00;;;4.70;99.90;;;;;;5069338;28;20051;-76
2022/09/28 00:14:02;;;;;;;0.00;0.00;;;4.60;99.90;;;;;;5069359;28;20418;-74
2022/09/28 00:16:33;;;;;;;0.55;0.45;;;4.60;99.90;;;;;;5068928;28;20055;-77
2022/09/28 00:19:00;;;;;;;0.20;0.20;;;4.50;99.90;;;;;;5069816;28;20049;-74
2022/09/28 00:21:28;;;;;;;0.28;0.22;;;4.60;99.90;;;;;;5069937;28;20511;-76
2022/09/28 00:24:12;;;;;;;0.10;0.10;;;4.50;99.90;;;;;;5069369;28;20128;-75
2022/09/28 00:26:56;;;;;;;0.00;0.00;;;4.50;99.90;;;;;;5070162;28;20515;-75
2022/09/28 00:29:33;;;;;;;0.00;0.00;;;4.50;99.90;;;;;;5070818;28;20052;-75
2022/09/28 00:32:04;;;;;;;0.00;0.00;;;4.40;99.90;;;;;;5069233;28;20121;-76
2022/09/28 00:34:36;;;;;;;0.15;0.15;;;4.40;99.90;;;;;;5069768;28;20060;-75
2022/09/28 00:37:03;;;;;;;0.00;0.00;;;4.30;99.90;;;;;;5069683;28;20536;-74
2022/09/28 00:39:30;;;;;;;0.00;0.00;;;4.40;99.90;;;;;;5069631;28;20052;-76
2022/09/28 00:41:57;;;;;;;0.00;0.00;;;4.40;99.90;;;;;;5069830;28;20052;-74
2022/09/28 00:44:26;;;;;;;0.10;0.10;;;4.40;99.90;;;;;;5069711;28;20040;-76
2022/09/28 00:47:02;;;;;;;0.00;0.00;;;4.50;99.90;;;;;;5069787;28;20037;-76
2022/09/28 00:49:39;;;;;;;0.52;0.52;;;4.50;99.90;;;;;;5069466;28;20491;-75
2022/09/28 00:52:07;;;;;;;0.10;0.10;;;4.60;99.90;;;;;;5068153;28;20161;-76
2022/09/28 00:54:34;;;;;;;0.00;0.00;;;4.50;99.90;;;;;;5069278;28;20113;-76
2022/09/28 00:57:01;;;;;;;0.00;0.00;;;4.50;99.90;;;;;;5069677;28;20078;-76
2022/09/28 00:59:27;;;;;;;0.10;0.10;;;4.40;99.90;;;;;;5069893;28;20056;-76
2022/09/28 01:01:52;;;;;;;0.00;0.00;;;4.40;99.90;;;;;;5070128;28;20040;-76
2022/09/28 01:04:18;;;;;;;0.00;0.00;;;4.40;99.90;;;;;;5069183;28;20076;-76
2022/09/28 01:06:45;;;;;;;0.20;0.20;;;4.40;99.90;;;;;;5068495;28;20067;-74
2022/09/28 01:09:13;;;;;;;0.00;0.00;;;4.40;99.90;;;;;;5068839;28;20040;-75
2022/09/28 01:11:41;;;;;;;0.00;0.00;;;4.30;99.90;;;;;;5069438;28;20060;-74
2022/09/28 01:14:10;;;;;;;0.00;0.00;;;4.20;99.90;;;;;;5069677;28;20071;-76
2022/09/28 01:17:04;;;;;;;0.00;0.00;;;4.20;99.90;;;;;;5068873;28;20041;-76
2022/09/28 01:20:25;;;;;;;0.00;0.00;;;4.20;99.90;;;;;;5068966;28;20040;-76
2022/09/28 01:23:26;;;;;;;0.00;0.00;;;4.10;99.90;;;;;;5007041;28;20050;-75
2022/09/28 01:26:01;;;;;;;0.00;0.00;;;4.10;99.90;;;;;;5007196;28;20142;-76
2022/09/28 01:28:28;;;;;;;0.00;0.00;;;4.10;99.90;;;;;;5063342;28;20045;-76
2022/09/28 01:31:06;;;;;;;0.03;0.03;;;4.10;99.90;;;;;;5069618;28;20117;-75
2022/09/28 01:33:45;;;;;;;0.10;0.10;;;4.10;99.90;;;;;;5069626;28;20064;-75
2022/09/28 01:36:18;;;;;;;0.00;0.00;;;4.00;99.90;;;;;;5070720;28;20045;-75
2022/09/28 01:39:01;;;;;;;0.00;0.00;;;4.00;99.90;;;;;;5070934;28;20048;-75
2022/09/28 01:41:29;;;;;;;0.00;0.00;;;3.90;99.90;;;;;;5070659;28;20534;-75
2022/09/28 01:43:56;;;;;;;0.00;0.00;;;3.90;99.90;;;;;;5070696;28;20045;-77
2022/09/28 01:46:27;;;;;;;0.08;0.08;;;3.90;99.90;;;;;;5070420;28;20120;-77
2022/09/28 01:48:57;;;;;;;0.00;0.00;;;3.70;99.90;;;;;;5070489;28;20049;-77
2022/09/28 01:51:35;;;;;;;0.00;0.00;;;3.70;99.90;;;;;;5050689;28;20049;-75
2022/09/28 01:54:10;;;;;;;0.00;0.00;;;3.60;99.90;;;;;;5049993;28;20049;-76
2022/09/28 01:56:42;;;;;;;0.15;0.15;;;3.50;99.90;;;;;;5050084;28;20056;-77
2022/09/28 01:59:16;;;;;;;0.00;0.00;;;3.50;99.90;;;;;;5103487;22;20033;-87
2022/09/28 02:01:52;;;;;;;0.00;0.00;;;3.50;99.90;;;;;;5055817;28;20124;-87
2022/09/28 02:04:23;;;;;;;0.20;0.20;;;3.50;99.90;;;;;;5073936;28;20052;-87
2022/09/28 02:07:01;;;;;;;0.52;0.40;;;4.10;99.90;;;;;;5057881;28;20025;-87
2022/09/28 02:09:37;;;;;;;0.10;0.10;;;3.40;99.90;;;;;;5073744;28;20040;-87
2022/09/28 02:12:16;;;;;;;0.00;0.00;;;3.50;99.90;;;;;;5074090;28;20052;-87
2022/09/28 02:14:44;;;;;;;0.00;0.00;;;3.60;99.90;;;;;;5073094;28;20033;-86
2022/09/28 02:17:10;;;;;;;0.70;0.70;;;4.30;99.90;;;;;;5059635;28;20052;-86
2022/09/28 02:19:37;;;;;;;0.10;0.10;;;4.00;99.90;;;;;;5093465;28;20024;-87
2022/09/28 02:22:22;;;;;;;0.35;0.35;;;5.00;99.90;;;;;;5093660;28;20039;-87
2022/09/28 02:24:54;;;;;;;0.10;0.10;;;4.40;99.90;;;;;;5094623;28;20032;-87
2022/09/28 02:27:43;;;;;;;0.00;0.00;;;5.70;99.90;;;;;;5077852;28;20033;-87
2022/09/28 02:30:10;;;;;;;0.00;0.00;;;4.80;99.90;;;;;;5057121;28;20065;-87
2022/09/28 02:32:41;;;;;;;0.00;0.00;;;5.00;99.90;;;;;;5074290;28;20043;-87
2022/09/28 02:35:10;;;;;;;0.15;0.15;;;5.30;99.90;;;;;;5057200;28;20053;-87
2022/09/28 02:37:35;;;;;;;0.00;0.00;;;6.00;99.90;;;;;;5057281;28;20056;-87
2022/09/28 02:40:02;;;;;;;0.82;0.82;;;5.60;99.90;;;;;;5074467;28;20059;-87
2022/09/28 02:42:59;;;;;;;1.02;0.45;;;5.70;99.90;;;;;;5074316;28;20049;-87
2022/09/28 02:45:44;;;;;;;0.30;0.25;;;5.80;99.90;;;;;;5073356;28;20029;-87
2022/09/28 02:48:18;;;;;;;0.17;0.17;;;6.00;99.90;;;;;;5074078;28;20033;-87
2022/09/28 02:51:03;;;;;;;0.00;0.00;;;7.00;99.90;;;;;;5090669;28;20029;-87
2022/09/28 02:54:04;;;;;;;0.30;0.30;;;6.10;99.90;;;;;;5073689;28;20033;-87
2022/09/28 02:56:41;;;;;;;1.23;1.13;;;6.10;99.90;;;;;;5073718;28;20698;-87
2022/09/28 02:59:19;;;;;;;0.88;0.77;;;6.10;99.90;;;;;;5073097;28;20040;-86
2022/09/28 03:01:52;;;;;;;0.10;0.10;;;6.30;99.90;;;;;;5074073;28;20057;-86
2022/09/28 03:04:41;;;;;;;0.00;0.00;;;5.20;99.90;;;;;;5056398;28;20029;-85
2022/09/28 03:07:15;;;;;;;0.00;0.00;;;6.10;99.90;;;;;;5073547;28;20036;-85
2022/09/28 03:10:13;;;;;;;0.20;0.20;;;6.70;99.90;;;;;;5056863;28;20057;-86
2022/09/28 03:12:39;;;;;;;2.88;0.88;;;6.00;99.90;;;;;;5032121;28;20041;-86
2022/09/28 03:15:22;;;;;;;0.10;0.10;;;5.90;99.90;;;;;;5036198;28;20041;-87
2022/09/28 03:17:47;;;;;;;0.50;0.35;;;5.90;99.90;;;;;;5036379;28;20033;-86
2022/09/28 03:20:13;;;;;;;0.32;0.32;;;5.90;99.90;;;;;;5052829;28;20385;-86
2022/09/28 03:22:39;;;;;;;1.13;0.73;;;5.80;99.90;;;;;;5052560;28;20040;-86
2022/09/28 03:25:06;;;;;;;0.65;0.55;;;5.80;99.90;;;;;;5053528;28;20034;-86
2022/09/28 03:27:32;;;;;;;0.75;0.63;;;5.80;99.90;;;;;;5052222;28;20044;-86
2022/09/28 03:29:58;;;;;;;3.83;1.83;;;5.80;99.90;;;;;;5062490;28;20043;-86
2022/09/28 03:32:23;;;;;;;1.15;0.88;;;5.80;99.90;;;;;;5073980;28;20100;-86
2022/09/28 03:34:49;;;;;;;0.13;0.13;;;6.40;99.90;;;;;;5075033;28;20025;-86
2022/09/28 03:37:15;;;;;;;0.38;0.38;;;5.80;99.90;;;;;;5086677;28;20029;-85
2022/09/28 03:39:40;;;;;;;0.08;0.08;;;6.80;99.90;;;;;;5094827;28;20432;-86
2022/09/28 03:42:06;;;;;;;0.13;0.10;;;5.80;99.90;;;;;;5096243;28;20028;-86
2022/09/28 03:44:31;;;;;;;0.88;0.38;;;5.80;99.90;;;;;;5079236;28;20028;-86
2022/09/28 03:46:57;;;;;;;0.30;0.20;;;6.40;99.90;;;;;;5087646;28;20094;-87
2022/09/28 03:49:23;;;;;;;0.10;0.10;;;6.40;99.90;;;;;;5076205;28;20021;-86
2022/09/28 03:51:48;;;;;;;0.40;0.35;;;5.70;99.90;;;;;;5075488;28;20032;-85
2022/09/28 03:54:14;;;;;;;0.40;0.40;;;6.40;99.90;;;;;;5076075;28;20057;-86
2022/09/28 03:56:40;;;;;;;0.00;0.00;;;5.70;99.90;;;;;;5082504;28;20031;-86
2022/09/28 03:59:06;;;;;;;0.22;0.22;;;5.50;99.90;;;;;;5086296;28;20033;-86
2022/09/28 04:01:32;;;;;;;0.25;0.25;;;6.40;99.90;;;;;;5075479;28;20040;-86
2022/09/28 04:03:57;;;;;;;0.30;0.30;;;5.70;99.90;;;;;;5076311;28;20040;-86
2022/09/28 04:06:24;;;;;;;0.20;0.20;;;6.50;99.90;;;;;;5058516;28;20044;-86
2022/09/28 04:08:50;;;;;;;0.57;0.35;;;5.80;99.90;;;;;;5076178;28;20021;-86
2022/09/28 04:11:16;;;;;;;0.28;0.28;;;6.90;99.90;;;;;;5058812;28;20025;-87
2022/09/28 04:13:41;;;;;;;0.20;0.20;;;6.70;99.90;;;;;;5075165;28;20063;-85
2022/09/28 04:16:09;;;;;;;0.32;0.32;;;5.80;99.90;;;;;;5075013;28;20041;-86
2022/09/28 04:18:35;;;;;;;1.17;0.65;;;5.80;99.90;;;;;;5076249;28;20080;-86
2022/09/28 04:21:07;;;;;;;0.40;0.40;;;6.30;99.90;;;;;;5059018;28;20033;-86
2022/09/28 04:23:38;;;;;;;0.00;0.00;;;5.80;99.90;;;;;;5058747;28;20113;-86
2022/09/28 04:26:06;;;;;;;0.70;0.55;;;5.80;99.90;;;;;;5075910;28;20084;-86
2022/09/28 04:31:19;;;;;;;1.00;0.20;;;5.80;99.90;;;;;;5076083;28;20085;-86
2022/09/28 04:33:45;;;;;;;0.00;0.00;;;6.60;99.90;;;;;;5075322;28;20032;-86
2022/09/28 04:36:10;;;;;;;0.25;0.25;;;6.50;99.90;;;;;;5075386;28;20059;-86
2022/09/28 04:38:37;;;;;;;0.10;0.10;;;5.90;99.90;;;;;;5095394;28;20109;-86
2022/09/28 04:41:03;;;;;;;0.52;0.38;;;6.00;99.90;;;;;;5094343;28;20025;-87
2022/09/28 04:43:29;;;;;;;0.93;0.75;;;5.90;99.90;;;;;;5096051;28;20032;-86
2022/09/28 04:45:59;;;;;;;0.20;0.20;;;5.90;99.90;;;;;;5095700;28;20065;-86
2022/09/28 04:48:25;;;;;;;1.02;0.50;;;5.90;99.90;;;;;;5078303;28;20047;-86
2022/09/28 04:50:59;;;;;;;1.70;0.60;;;5.90;99.90;;;;;;5075204;28;20029;-87
2022/09/28 04:53:26;;;;;;;2.47;1.58;;;6.20;99.90;;;;;;5075049;28;20053;-86
2022/09/28 04:56:00;;;;;;;0.50;0.50;;;6.60;99.90;;;;;;5075137;28;20021;-86
2022/09/28 04:58:27;;;;;;;0.43;0.43;;;6.50;99.90;;;;;;5076273;28;20055;-86
2022/09/28 05:00:58;;;;;;;0.05;0.05;;;5.90;99.90;;;;;;5095464;28;20064;-87
2022/09/28 05:03:25;;;;;;;0.40;0.40;;;5.90;99.90;;;;;;5095505;28;20043;-86
2022/09/28 05:05:50;;;;;;;0.25;0.25;;;6.70;99.90;;;;;;5095219;28;20088;-86
2022/09/28 05:08:17;;;;;;;0.28;0.17;;;5.80;99.90;;;;;;5094016;28;20058;-86
2022/09/28 05:10:47;;;;;;;0.88;0.17;;;6.80;99.90;;;;;;5093080;28;20028;-87
2022/09/28 05:13:13;;;;;;;2.65;0.95;;;6.80;99.90;;;;;;5076566;28;20029;-85
2022/09/28 05:15:41;;;;;;;1.55;0.57;;;5.10;99.90;;;;;;5093891;28;20055;-86
2022/09/28 05:18:07;;;;;;;0.52;0.28;;;6.10;99.90;;;;;;5079601;28;20073;-86
2022/09/28 05:20:38;;;;;;;0.30;0.30;;;5.60;99.90;;;;;;5074067;28;20056;-87
2022/09/28 05:23:04;;;;;;;0.28;0.28;;;5.70;99.90;;;;;;5073081;28;20105;-86
2022/09/28 05:25:30;;;;;;;0.95;0.82;;;6.30;99.90;;;;;;5074114;28;20083;-86
2022/09/28 05:27:56;;;;;;;0.65;0.40;;;6.10;99.90;;;;;;5087150;28;20052;-88
2022/09/28 05:30:23;;;;;;;0.10;0.10;;;6.10;99.90;;;;;;5093993;28;20092;-85
2022/09/28 05:32:52;;;;;;;0.20;0.20;;;6.40;99.90;;;;;;5076754;28;20051;-85
2022/09/28 05:35:17;;;;;;;0.03;0.03;;;5.50;99.90;;;;;;5093473;28;20040;-85
2022/09/28 05:37:43;;;;;;;0.65;0.28;;;6.50;99.90;;;;;;5093760;28;20034;-86
2022/09/28 05:40:09;;;;;;;0.88;0.77;;;5.50;99.90;;;;;;5076952;28;20040;-86
2022/09/28 05:42:35;;;;;;;0.25;0.25;;;5.60;99.90;;;;;;5093279;28;20088;-85
2022/09/28 05:45:02;;;;;;;0.00;0.00;;;5.50;99.90;;;;;;5093354;28;20062;-85
2022/09/28 05:47:28;;;;;;;0.50;0.50;;;5.60;99.90;;;;;;5076717;28;20037;-85
2022/09/28 05:49:54;;;;;;;0.52;0.40;;;6.40;99.90;;;;;;5094559;28;20036;-85
2022/09/28 05:52:20;;;;;;;0.43;0.43;;;5.50;99.90;;;;;;5093128;28;20047;-86
2022/09/28 05:54:46;;;;;;;0.35;0.35;;;5.60;99.90;;;;;;5093221;28;20087;-86
2022/09/28 05:57:13;;;;;;;0.15;0.15;;;5.90;99.90;;;;;;5094169;28;20031;-85
2022/09/28 05:59:39;;;;;;;0.03;0.03;;;6.30;99.90;;;;;;5094101;28;20239;-86
2022/09/28 06:02:05;;;;;;;0.00;0.00;;;6.20;99.90;;;;;;5094270;28;20047;-85
2022/09/28 06:04:32;;;;;;;0.00;0.00;;;6.00;99.90;;;;;;5094529;28;20032;-85
2022/09/28 06:06:58;;;;;;;0.00;0.00;;;5.50;99.90;;;;;;5094356;28;20115;-86
2022/09/28 06:09:24;;;;;;;0.00;0.00;;;6.10;99.90;;;;;;5076615;28;20037;-85
2022/09/28 06:11:50;;;;;;;0.50;0.47;;;6.20;99.90;;;;;;5094308;28;20031;-86
2022/09/28 06:14:16;;;;;;;0.20;0.20;;;6.60;99.90;;;;;;5093431;28;20033;-85
2022/09/28 06:16:42;;;;;;;0.00;0.00;;;5.60;99.90;;;;;;5093720;28;20024;-85
2022/09/28 06:19:08;;;;;;;0.08;0.08;;;5.70;99.90;;;;;;5093547;28;20028;-85
2022/09/28 06:21:34;;;;;;;0.10;0.10;;;5.70;99.90;;;;;;5093352;28;20179;-85
2022/09/28 06:24:01;;;;;;;0.20;0.13;;;5.60;99.90;;;;;;5093423;28;20036;-85
2022/09/28 06:26:27;;;;;;;0.60;0.32;;;5.70;99.90;;;;;;5077204;28;20051;-85
2022/09/28 06:28:53;;;;;;;0.03;0.03;;;6.60;99.90;;;;;;5093956;28;20056;-86
2022/09/28 06:31:22;;;;;;;0.60;0.40;;;6.80;99.90;;;;;;5093191;28;20088;-86
2022/09/28 06:33:48;;;;;;;0.00;0.00;;;5.80;99.90;;;;;;5093297;28;20039;-87
2022/09/28 06:36:15;;;;;;;0.38;0.38;;;6.30;99.90;;;;;;5076370;28;20041;-86
2022/09/28 06:38:44;;;;;;;0.03;0.03;;;6.40;99.90;;;;;;5093656;28;20048;-86
2022/09/28 06:41:10;;;;;;;0.17;0.15;;;6.80;99.90;;;;;;5093038;28;20020;-86
2022/09/28 06:43:38;;;;;;;0.00;0.00;;;6.00;99.90;;;;;;5093224;28;20048;-86
2022/09/28 06:46:05;;;;;;;0.40;0.40;;;6.10;99.90;;;;;;5092854;28;20032;-86
2022/09/28 06:48:32;;;;;;;0.65;0.65;;;6.10;99.90;;;;;;5092571;28;20036;-86
2022/09/28 06:51:00;;;;;;;0.70;0.57;;;6.10;99.90;;;;;;5093255;28;20028;-86
2022/09/28 06:53:27;;;;;;;0.10;0.10;;;6.10;99.90;;;;;;5075814;28;20039;-86
2022/09/28 06:55:54;;;;;;;0.98;0.40;;;6.20;99.90;;;;;;5093091;28;20056;-87
2022/09/28 06:58:20;;;;;;;0.10;0.10;;;6.30;99.90;;;;;;5058934;28;20043;-86
2022/09/28 07:00:48;;;;;;;0.30;0.30;;;6.40;99.90;;;;;;5092357;28;20045;-86
2022/09/28 07:03:20;;;;;;;0.05;0.05;;;6.50;99.90;;;;;;5088601;28;20055;-86
2022/09/28 07:05:49;;;;;;;0.35;0.35;;;6.70;99.90;;;;;;5058807;28;20029;-86
2022/09/28 07:08:15;;;;;;;0.00;0.00;;;7.30;99.90;;;;;;5075934;28;20032;-86
2022/09/28 07:10:43;;;;;;;0.88;0.82;;;7.70;99.90;;;;;;5076680;28;20132;-86
2022/09/28 07:13:10;;;;;;;0.03;0.03;;;6.90;99.90;;;;;;5059172;28;20033;-86
2022/09/28 07:15:36;;;;;;;0.20;0.20;;;7.00;99.90;;;;;;5075285;28;20033;-86
2022/09/28 07:18:04;;;;;;;0.15;0.15;;;8.00;99.90;;;;;;5076779;28;20067;-86
2022/09/28 07:20:32;;;;;;;0.75;0.63;;;7.10;99.90;;;;;;5058879;28;20088;-86
2022/09/28 07:23:00;;;;;;;0.20;0.20;;;7.10;99.90;;;;;;5092092;28;20041;-87
2022/09/28 07:25:28;;;;;;;0.68;0.22;;;7.10;99.90;;;;;;5075849;28;20052;-87
2022/09/28 07:27:58;;;;;;;0.28;0.22;;;7.20;99.90;;;;;;5076495;28;20069;-86
2022/09/28 07:30:26;;;;;;;0.13;0.13;;;7.30;99.90;;;;;;5059568;28;20104;-86
2022/09/28 07:32:52;;;;;;;0.30;0.30;;;7.50;99.90;;;;;;5076412;28;20036;-85
2022/09/28 07:35:18;;;;;;;0.00;0.00;;;7.70;99.90;;;;;;5056900;28;20037;-86
2022/09/28 07:37:44;;;;;;;0.60;0.60;;;8.40;99.90;;;;;;5074088;28;20043;-86
2022/09/28 07:43:04;;;;;;;0.20;0.20;;;8.00;99.90;;;;;;5010861;28;20058;-76
2022/09/28 07:45:35;;;;;;;0.35;0.35;;;8.10;99.90;;;;;;4970096;28;20604;-76
2022/09/28 07:53:32;;;;;;;0.40;0.40;;;8.40;99.90;;;;;;3470179;22;20543;-76
2022/09/28 07:56:06;;;;;;;0.10;0.10;;;8.60;99.90;;;;;;5040568;28;20433;-76
2022/09/28 07:58:33;;;;;;;0.10;0.10;;;8.70;99.90;;;;;;5037988;28;20502;-77
2022/09/28 08:01:04;;;;;;;1.42;0.60;;;8.80;99.90;;;;;;5032121;28;20049;-77
2022/09/28 08:03:29;;;;;;;0.57;0.57;;;8.90;99.90;;;;;;5023194;28;20056;-77
2022/09/28 08:06:00;;;;;;;0.25;0.25;;;8.90;99.90;;;;;;5039998;28;20496;-76
2022/09/28 08:08:26;;;;;;;1.70;1.40;;;8.90;99.90;;;;;;5043252;28;20057;-77
2022/09/28 08:10:52;;;;;;;0.88;0.85;;;9.20;99.90;;;;;;5143237;22;20527;-76
2022/09/28 08:13:19;;;;;;;0.38;0.17;;;9.40;99.90;;;;;;5046526;28;20056;-77
2022/09/28 08:15:47;;;;;;;0.80;0.65;;;9.50;99.90;;;;;;5043420;28;20521;-76
2022/09/28 08:18:13;;;;;;;1.55;1.00;;;9.50;99.90;;;;;;5051051;28;20337;-77
2022/09/28 08:23:23;;;;;;;0.63;0.57;;;9.50;99.90;;;;;;5063576;28;20047;-77
2022/09/28 08:25:52;;;;;;;0.50;0.40;;;9.50;99.90;;;;;;5063526;28;20398;-77
2022/09/28 08:28:19;;;;;;;1.23;1.02;;;9.80;99.90;;;;;;5054989;28;20139;-77
2022/09/28 08:30:45;;;;;;;1.85;1.20;;;9.90;99.90;;;;;;5042723;28;20131;-76
2022/09/28 08:33:12;;;;;;;0.65;0.65;;;9.90;99.90;;;;;;5043428;28;20037;-76
2022/09/28 08:35:39;;;;;;;1.13;0.80;;;9.80;99.90;;;;;;5043094;28;20060;-77
2022/09/28 08:38:06;;;;;;;0.10;0.10;;;9.50;99.90;;;;;;5062619;28;20105;-77
2022/09/28 08:40:41;;;;;;;0.65;0.55;;;9.50;99.90;;;;;;5062936;28;20044;-77
2022/09/28 08:43:25;;;;;;;0.20;0.20;;;9.40;99.90;;;;;;5062362;28;20052;-76
2022/09/28 08:45:51;;;;;;;0.52;0.52;;;9.30;99.90;;;;;;5048863;28;20055;-77
2022/09/28 08:48:43;;;;;;;0.55;0.55;;;9.60;99.90;;;;;;5042447;28;20094;-77
2022/09/28 08:51:17;;;;;;;1.08;0.55;;;10.20;99.90;;;;;;5051126;28;20052;-77
2022/09/28 08:54:11;;;;;;;0.55;0.50;;;10.30;99.90;;;;;;5061031;28;20066;-77
2022/09/28 08:57:12;;;;;;;0.77;0.77;;;10.50;99.90;;;;;;5063944;28;20049;-76
2022/09/28 08:59:55;;;;;;;0.45;0.35;;;10.70;99.90;;;;;;5033657;28;20194;-76
2022/09/28 09:02:32;;;;;;;1.23;0.82;;;10.80;99.90;;;;;;5062000;28;20067;-77
2022/09/28 09:05:09;;;;;;;1.17;0.65;;;10.60;99.90;;;;;;5062207;28;20959;-77
2022/09/28 09:08:02;;;;;;;0.73;0.43;;;10.50;99.90;;;;;;5058110;28;20084;-76
2022/09/28 09:10:43;;;;;;;0.17;0.17;;;10.50;99.90;;;;;;5043241;28;20065;-77
2022/09/28 09:13:26;;;;;;;0.95;0.77;;;10.70;99.90;;;;;;5042624;28;20057;-76
2022/09/28 09:16:19;;;;;;;0.20;0.20;;;11.40;99.90;;;;;;5044330;28;20496;-76
2022/09/28 09:18:58;;;;;;;0.55;0.55;;;11.80;99.90;;;;;;5050131;28;20098;-77
2022/09/28 09:21:26;;;;;;;0.43;0.38;;;12.20;99.90;;;;;;5054096;28;20430;-76
2022/09/28 09:24:02;;;;;;;0.47;0.47;;;13.20;99.90;;;;;;5048464;28;20528;-77
2022/09/28 09:26:39;;;;;;;0.32;0.32;;;12.10;99.90;;;;;;5064977;28;20448;-76
2022/09/28 09:29:32;;;;;;;0.40;0.40;;;11.90;99.90;;;;;;5064481;28;20049;-76
2022/09/28 09:32:22;;;;;;;0.95;0.73;;;11.70;99.90;;;;;;5063891;28;20627;-77
2022/09/28 09:35:20;;;;;;;2.63;0.45;;;11.60;99.90;;;;;;5065234;28;20055;-76
2022/09/28 09:40:35;;;;;;;0.30;0.30;;;11.30;99.90;;;;;;4996824;28;20124;-85
2022/09/28 09:43:19;;;;;;;4.32;1.30;;;11.60;99.90;;;;;;5000088;28;20050;-85
2022/09/28 09:46:09;;;;;;;0.80;0.75;;;12.60;99.90;;;;;;4999618;28;20046;-85
2022/09/28 09:49:04;;;;;;;3.13;2.05;;;12.60;99.90;;;;;;5001351;28;20062;-85
2022/09/28 09:51:51;;;;;;;0.90;0.68;;;12.60;99.90;;;;;;4999146;28;20100;-85
2022/09/28 09:54:23;;;;;;;0.28;0.10;;;12.50;99.90;;;;;;4999617;28;20061;-86
2022/09/28 09:57:07;;;;;;;0.43;0.10;;;12.60;99.90;;;;;;5004061;28;20062;-86
2022/09/28 09:59:43;;;;;;;0.68;0.68;;;12.60;99.90;;;;;;5001302;28;20110;-87
2022/09/28 10:02:20;;;;;;;0.85;0.73;;;13.30;99.90;;;;;;5000992;28;20042;-86
2022/09/28 10:04:48;;;;;;;0.68;0.28;;;12.80;99.90;;;;;;5006703;28;20578;-85
2022/09/28 10:07:23;;;;;;;0.75;0.60;;;13.20;99.90;;;;;;5038160;28;20052;-85
2022/09/28 10:09:54;;;;;;;0.63;0.55;;;13.50;99.90;;;;;;5031807;28;20056;-84
2022/09/28 10:12:21;;;;;;;0.30;0.30;;;13.50;99.90;;;;;;5031094;28;20034;-84
2022/09/28 10:14:48;;;;;;;0.73;0.50;;;14.10;99.90;;;;;;5030707;28;20084;-84
2022/09/28 10:17:17;;;;;;;1.00;0.65;;;14.30;99.90;;;;;;5031631;28;20994;-84
2022/09/28 10:19:43;;;;;;;0.52;0.38;;;14.00;99.90;;;;;;5030070;28;20081;-84
2022/09/28 10:22:14;;;;;;;0.52;0.52;;;13.70;99.90;;;;;;5029639;28;20080;-84
2022/09/28 10:24:45;;;;;;;0.52;0.40;;;13.80;99.90;;;;;;5030103;28;20085;-84
2022/09/28 10:27:33;;;;;;;0.03;0.03;;;13.80;99.90;;;;;;5034195;28;20076;-85
2022/09/28 10:30:19;;;;;;;2.85;0.90;;;14.80;99.90;;;;;;5033695;28;20053;-84
2022/09/28 10:32:47;;;;;;;0.00;0.00;;;13.90;99.90;;;;;;5031692;28;20064;-85
2022/09/28 10:35:22;;;;;;;0.20;0.20;;;13.70;99.90;;;;;;5032086;28;20064;-85
2022/09/28 10:37:53;;;;;;;3.17;0.60;;;14.10;99.90;;;;;;5034070;28;20041;-84
2022/09/28 10:40:39;;;;;;;0.20;0.20;;;14.00;99.90;;;;;;5039224;28;20156;-85
2022/09/28 10:43:16;;;;;;;0.00;0.00;;;14.20;99.90;;;;;;5045650;28;20130;-84
2022/09/28 10:45:42;;;;;;;2.17;0.20;;;14.40;99.90;;;;;;5041786;28;20174;-85
2022/09/28 10:48:19;;;;;;;0.35;0.30;;;14.50;99.90;;;;;;5042617;28;20056;-85
2022/09/28 10:51:03;;;;;;;0.20;0.17;;;13.90;99.90;;;;;;5041476;28;20064;-84
2022/09/28 10:53:28;;;;;;;0.08;0.08;;;14.00;77.50;;;;;;5037916;28;20064;-84
2022/09/28 10:56:19;;;;;;;0.28;0.28;;;14.60;99.90;;;;;;5038604;28;20136;-85
2022/09/28 10:58:45;;;;;;;0.25;0.15;;;15.00;99.90;;;;;;5041008;28;20065;-84
2022/09/28 11:01:17;;;;;;;0.22;0.17;;;15.50;1.00;;;;;;5043208;28;20084;-85
2022/09/28 11:03:55;;;;;;;0.20;0.20;;;15.10;1.00;;;;;;5046491;28;20095;-85
2022/09/28 11:06:40;;;;;;;1.88;0.20;;;14.60;99.90;;;;;;5042222;28;21012;-83
2022/09/28 11:09:32;;;;;;;0.10;0.10;;;14.40;99.90;;;;;;5039729;28;20075;-85
2022/09/28 11:11:59;;;;;;;0.00;0.00;;;14.20;99.90;;;;;;5037721;28;20056;-83
2022/09/28 11:14:34;;;;;;;0.10;0.10;;;13.90;1.00;;;;;;5035221;28;20084;-84
2022/09/28 11:17:40;;;;;;;0.00;0.00;;;14.50;99.90;;;;;;5043370;28;20126;-84
2022/09/28 11:20:24;;;;;;;0.00;0.00;;;13.20;99.90;;;;;;5002978;28;20072;-84
2022/09/28 11:23:14;;;;;;;0.52;0.40;;;13.20;99.90;;;;;;5042331;28;20072;-84
2022/09/28 11:25:41;;;;;;;0.05;0.05;;;13.60;99.90;;;;;;5040528;28;20060;-84
2022/09/28 11:28:20;;;;;;;0.22;0.22;;;14.20;99.90;;;;;;5041075;28;20041;-84
2022/09/28 11:30:51;;;;;;;0.03;0.03;;;14.70;99.90;;;;;;5045518;28;20053;-85
2022/09/28 11:33:38;;;;;;;0.05;0.05;;;14.90;1.00;;;;;;5039063;28;20129;-84
2022/09/28 11:36:13;;;;;;;0.00;0.00;;;15.50;1.00;;;;;;5038035;28;20380;-84
2022/09/28 11:38:48;;;;;;;0.80;0.70;;;15.30;99.90;;;;;;5037645;28;20137;-85
2022/09/28 11:41:26;;;;;;;0.10;0.10;;;15.10;99.90;;;;;;5037817;28;20045;-84
2022/09/28 11:44:30;;;;;;;0.00;0.00;;;15.00;1.00;;;;;;5038336;28;20091;-85
2022/09/28 11:47:16;;;;;;;0.00;0.00;;;15.70;99.90;;;;;;5039136;28;20847;-84
2022/09/28 11:49:51;;;;;;;0.10;0.10;;;16.60;1.00;;;;;;5038377;28;20045;-84
2022/09/28 11:52:35;;;;;;;0.52;0.35;;;16.80;1.00;;;;;;5039869;28;20041;-85
2022/09/28 11:55:09;;;;;;;0.00;0.00;;;17.70;99.90;;;;;;5021435;28;20124;-85
2022/09/28 11:57:39;;;;;;;0.00;0.00;;;16.60;99.90;;;;;;5040635;28;20061;-84
2022/09/28 12:00:19;;;;;;;0.10;0.10;;;16.80;99.90;;;;;;5040203;28;20060;-84
2022/09/28 12:02:53;;;;;;;0.00;0.00;;;16.80;36.00;;;;;;5042245;28;20049;-84
2022/09/28 12:05:31;;;;;;;0.00;0.00;;;16.90;99.90;;;;;;5042339;28;20046;-84
2022/09/28 12:08:15;;;;;;;0.00;0.00;;;16.90;1.00;;;;;;5039171;28;20068;-84
2022/09/28 12:10:50;;;;;;;0.00;0.00;;;17.10;79.30;;;;;;5041671;28;20057;-84
2022/09/28 12:13:31;;;;;;;0.00;0.00;;;17.10;1.00;;;;;;5045946;28;20132;-85
2022/09/28 12:16:07;;;;;;;0.00;0.00;;;17.30;99.90;;;;;;5045753;28;20047;-85
2022/09/28 12:21:14;;;;;;;0.00;0.00;;;17.30;99.90;;;;;;5010581;28;20077;-78
2022/09/28 12:23:42;;;;;;;1.75;0.43;;;17.20;99.90;;;;;;5006484;28;20058;-79
2022/09/28 12:26:38;;;;;;;0.13;0.08;;;16.90;12.90;;;;;;4993376;28;20054;-78
2022/09/28 12:29:26;;;;;;;0.00;0.00;;;16.80;1.00;;;;;;4996944;28;20544;-77
2022/09/28 12:32:09;;;;;;;0.00;0.00;;;16.60;99.90;;;;;;5002211;28;20050;-78
2022/09/28 12:34:35;;;;;;;1.45;0.38;;;16.40;99.90;;;;;;5002832;28;20069;-77
2022/09/28 12:37:13;;;;;;;0.00;0.00;;;16.30;99.90;;;;;;5001521;28;20042;-78
2022/09/28 12:40:04;;;;;;;0.00;0.00;;;16.50;1.00;;;;;;5014561;28;20057;-79
2022/09/28 12:42:38;;;;;;;0.40;0.30;;;16.60;99.90;;;;;;4996895;28;20049;-76
2022/09/28 12:45:30;;;;;;;0.00;0.00;;;16.50;99.90;;;;;;4997899;28;20046;-76
2022/09/28 12:48:35;;;;;;;0.00;0.00;;;16.20;1.00;;;;;;4997402;28;20069;-77
2022/09/28 12:51:09;;;;;;;0.00;0.00;;;16.00;99.90;;;;;;4997520;28;20413;-77
2022/09/28 12:53:40;;;;;;;0.00;0.00;;;15.70;99.90;;;;;;4995974;28;20061;-78
2022/09/28 12:56:39;;;;;;;0.00;0.00;;;15.40;99.90;;;;;;4996062;28;20047;-77
2022/09/28 12:59:30;;;;;;;0.00;0.00;;;15.00;10.20;;;;;;4985469;28;20058;-79
2022/09/28 13:02:02;;;;;;;0.00;0.00;;;14.20;99.90;;;;;;4984573;28;20058;-80
2022/09/28 13:04:52;;;;;;;0.00;0.00;;;13.70;99.90;;;;;;4985136;28;20452;-78
2022/09/28 13:07:41;;;;;;;0.00;0.00;;;13.30;99.90;;;;;;4983259;28;20393;-78
2022/09/28 13:10:43;;;;;;;0.75;0.32;;;12.80;99.90;;;;;;4984546;28;20053;-78
2022/09/28 13:13:34;;;;;;;0.00;0.00;;;12.30;99.90;;;;;;4964242;28;20350;-80
2022/09/28 13:16:44;;;;;;;0.00;0.00;;;12.20;99.90;;;;;;4986156;28;20054;-79
2022/09/28 13:19:28;;;;;;;0.20;0.13;;;12.40;99.90;;;;;;4980023;28;20539;-78
2022/09/28 13:22:34;;;;;;;0.20;0.20;;;12.40;99.90;;;;;;4985581;28;20101;-78
2022/09/28 13:25:06;;;;;;;0.00;0.00;;;12.00;99.90;;;;;;4986416;28;20142;-78
2022/09/28 13:27:35;;;;;;;0.00;0.00;;;11.80;99.90;;;;;;5002499;28;20068;-78
2022/09/28 13:30:05;;;;;;;0.00;0.00;;;11.90;99.90;;;;;;5005961;28;20045;-79
2022/09/28 13:32:32;;;;;;;0.10;0.10;;;12.00;99.90;;;;;;5006279;28;20064;-79
2022/09/28 13:35:00;;;;;;;0.00;0.00;;;12.00;99.90;;;;;;5007180;28;20053;-78
2022/09/28 13:37:27;;;;;;;0.00;0.00;;;12.00;99.90;;;;;;5007229;28;20134;-79
2022/09/28 13:39:57;;;;;;;0.00;0.00;;;11.60;99.90;;;;;;5007302;28;20598;-78
2022/09/28 13:42:25;;;;;;;0.00;0.00;;;11.50;99.90;;;;;;5008233;28;20041;-79
2022/09/28 13:45:08;;;;;;;0.00;0.00;;;11.50;99.90;;;;;;5008927;28;20052;-77